createdAt,value
2017-10-27T00:01:14.990Z,98.30
2017-10-27T00:03:43.076Z,98.20
2017-10-27T00:06:11.179Z,98.00
2017-10-27T00:08:40.084Z,98.20
2017-10-27T00:11:08.161Z,98.20
2017-10-27T00:13:36.267Z,98.10
2017-10-27T00:16:04.353Z,98.30
2017-10-27T00:18:32.436Z,98.40
2017-10-27T00:21:00.548Z,98.30
2017-10-27T00:23:28.899Z,98.40
2017-10-27T00:25:57.786Z,98.40
2017-10-27T00:28:26.643Z,98.50
2017-10-27T00:30:54.879Z,98.30
2017-10-27T00:33:22.980Z,98.60
2017-10-27T00:35:51.083Z,98.40
2017-10-27T00:38:19.164Z,98.20
2017-10-27T00:40:47.267Z,98.20
2017-10-27T00:43:15.592Z,98.30
2017-10-27T00:45:43.675Z,98.30
2017-10-27T00:48:12.284Z,98.40
2017-10-27T00:50:41.148Z,98.50
2017-10-27T00:53:09.715Z,98.50
2017-10-27T00:55:37.826Z,98.40
2017-10-27T00:58:06.672Z,98.60
2017-10-27T01:00:35.285Z,98.50
2017-10-27T01:03:03.368Z,98.60
2017-10-27T01:05:32.235Z,98.70
2017-10-27T01:08:00.336Z,98.70
2017-10-27T01:10:29.195Z,98.80
2017-10-27T01:12:57.293Z,98.80
2017-10-27T01:15:25.403Z,98.80
2017-10-27T01:17:53.508Z,98.70
2017-10-27T01:20:21.599Z,98.80
2017-10-27T01:22:49.904Z,98.70
2017-10-27T01:25:18.743Z,99.00
2017-10-27T01:27:46.846Z,99.00
2017-10-27T01:30:14.950Z,98.60
2017-10-27T01:32:43.035Z,98.70
2017-10-27T01:35:11.136Z,98.70
2017-10-27T01:37:39.413Z,98.70
2017-10-27T01:40:07.608Z,98.60
2017-10-27T01:42:36.133Z,98.60
2017-10-27T01:45:04.212Z,98.70
2017-10-27T01:47:32.305Z,98.40
2017-10-27T01:50:00.423Z,98.50
2017-10-27T01:52:28.981Z,98.60
2017-10-27T01:54:57.093Z,98.50
2017-10-27T01:57:25.548Z,98.30
2017-10-27T01:59:53.624Z,98.20
2017-10-27T02:02:22.976Z,98.20
2017-10-27T02:04:51.078Z,98.20
2017-10-27T02:07:19.159Z,98.20
2017-10-27T02:09:47.255Z,98.40
2017-10-27T02:12:15.376Z,98.40
2017-10-27T02:14:43.468Z,98.20
2017-10-27T02:17:11.584Z,98.40
2017-10-27T02:19:39.674Z,98.30
2017-10-27T02:22:07.808Z,98.50
2017-10-27T02:24:35.913Z,98.30
2017-10-27T02:27:04.004Z,98.20
2017-10-27T02:29:32.105Z,98.30
2017-10-27T02:32:00.398Z,98.30
2017-10-27T02:34:29.255Z,98.50
2017-10-27T02:36:57.363Z,98.50
2017-10-27T02:39:26.219Z,98.80
2017-10-27T02:41:54.472Z,98.80
2017-10-27T02:44:22.565Z,98.80
2017-10-27T02:46:50.869Z,99.00
2017-10-27T02:49:18.951Z,99.00
2017-10-27T02:51:47.069Z,99.20
2017-10-27T02:54:15.167Z,99.30
2017-10-27T02:56:43.315Z,99.30
2017-10-27T02:59:11.772Z,99.20
2017-10-27T03:01:39.856Z,99.20
2017-10-27T03:04:07.951Z,99.10
2017-10-27T03:06:36.054Z,99.20
2017-10-27T03:09:04.155Z,99.30
2017-10-27T03:11:32.263Z,99.30
2017-10-27T03:14:00.364Z,99.50
2017-10-27T03:16:28.484Z,99.40
2017-10-27T03:18:56.637Z,99.40
2017-10-27T03:21:24.747Z,99.40
2017-10-27T03:23:52.859Z,99.40
2017-10-27T03:26:20.939Z,99.20
2017-10-27T03:28:49.040Z,99.00
2017-10-27T03:31:17.124Z,99.30
2017-10-27T03:33:45.245Z,99.10
2017-10-27T03:36:13.338Z,99.30
2017-10-27T03:38:42.404Z,99.30
2017-10-27T03:41:10.506Z,99.30
2017-10-27T03:43:38.609Z,99.40
2017-10-27T03:46:06.717Z,99.50
2017-10-27T03:48:34.808Z,99.40
2017-10-27T03:51:02.924Z,99.40
2017-10-27T03:53:31.012Z,99.10
2017-10-27T03:55:59.141Z,99.10
2017-10-27T03:58:28.320Z,99.10
2017-10-27T04:00:56.467Z,99.10
2017-10-27T04:03:24.976Z,98.90
2017-10-27T04:05:53.232Z,98.80
2017-10-27T04:08:21.353Z,99.00
2017-10-27T04:10:49.453Z,98.80
2017-10-27T04:13:17.537Z,98.60
2017-10-27T04:15:46.644Z,98.60
2017-10-27T04:18:14.727Z,98.60
2017-10-27T04:20:42.839Z,98.70
2017-10-27T04:23:10.941Z,99.10
2017-10-27T04:25:39.021Z,98.60
2017-10-27T04:28:07.171Z,98.20
2017-10-27T04:30:35.292Z,98.50
2017-10-27T04:33:03.426Z,98.70
2017-10-27T04:35:31.503Z,98.40
2017-10-27T04:37:59.647Z,98.40
2017-10-27T04:40:27.760Z,98.30
2017-10-27T04:42:55.857Z,98.40
2017-10-27T04:45:24.164Z,98.40
2017-10-27T04:47:52.276Z,98.20
2017-10-27T04:50:20.393Z,98.20
2017-10-27T04:52:48.479Z,98.10
2017-10-27T04:55:16.806Z,98.10
2017-10-27T04:57:44.897Z,98.10
2017-10-27T05:00:12.999Z,98.10
2017-10-27T05:02:41.116Z,98.10
2017-10-27T05:05:09.221Z,98.20
2017-10-27T05:07:37.323Z,98.20
2017-10-27T05:10:06.172Z,98.10
2017-10-27T05:12:34.287Z,98.10
2017-10-27T05:15:02.364Z,98.10
2017-10-27T05:17:36.988Z,97.90
2017-10-27T05:20:10.559Z,97.90
2017-10-27T05:22:44.101Z,97.60
2017-10-27T05:25:12.645Z,97.50
2017-10-27T05:27:41.847Z,97.50
2017-10-27T05:30:09.957Z,97.80
2017-10-27T05:32:38.072Z,97.60
2017-10-27T05:35:06.164Z,97.60
2017-10-27T05:37:34.293Z,97.30
2017-10-27T05:40:02.399Z,97.50
2017-10-27T05:42:30.499Z,97.50
2017-10-27T05:44:58.592Z,97.30
2017-10-27T05:47:26.693Z,97.10
2017-10-27T05:49:55.060Z,96.50
2017-10-27T05:52:23.174Z,97.00
2017-10-27T05:54:51.265Z,96.80
2017-10-27T05:57:20.136Z,96.70
2017-10-27T05:59:48.245Z,96.70
2017-10-27T06:02:16.325Z,96.70
2017-10-27T06:04:44.428Z,96.90
2017-10-27T06:07:12.521Z,96.70
2017-10-27T06:09:40.881Z,96.70
2017-10-27T06:12:10.015Z,96.90
2017-10-27T06:14:39.079Z,96.70
2017-10-27T06:17:07.191Z,96.70
2017-10-27T06:19:35.289Z,96.70
2017-10-27T06:22:03.406Z,96.90
2017-10-27T06:24:31.499Z,96.70
2017-10-27T06:27:00.376Z,96.80
2017-10-27T06:29:28.471Z,96.80
2017-10-27T06:31:57.323Z,97.00
2017-10-27T06:34:25.432Z,96.90
2017-10-27T06:36:54.292Z,96.70
2017-10-27T06:39:22.368Z,96.60
2017-10-27T06:41:50.472Z,97.20
2017-10-27T06:44:18.590Z,96.80
2017-10-27T06:46:46.685Z,96.90
2017-10-27T06:49:14.764Z,97.70
2017-10-27T06:51:43.274Z,97.60
2017-10-27T06:54:13.338Z,97.20
2017-10-27T06:56:41.429Z,97.20
2017-10-27T06:59:09.536Z,97.60
2017-10-27T07:01:37.628Z,97.00
2017-10-27T07:04:05.710Z,96.80
2017-10-27T07:06:33.839Z,97.30
2017-10-27T07:09:01.941Z,97.30
2017-10-27T07:11:30.131Z,97.40
2017-10-27T07:13:59.043Z,97.20
2017-10-27T07:16:27.824Z,97.20
2017-10-27T07:18:55.923Z,97.30
2017-10-27T07:21:24.004Z,97.50
2017-10-27T07:23:52.116Z,97.20
2017-10-27T07:26:20.199Z,97.20
2017-10-27T07:28:48.297Z,97.10
2017-10-27T07:31:16.456Z,97.40
2017-10-27T07:33:44.531Z,97.30
2017-10-27T07:36:12.632Z,97.30
2017-10-27T07:38:40.718Z,97.20
2017-10-27T07:41:09.672Z,97.50
2017-10-27T07:43:37.750Z,97.40
2017-10-27T07:46:05.867Z,97.20
2017-10-27T07:48:34.686Z,96.90
2017-10-27T07:51:03.546Z,96.40
2017-10-27T07:53:33.229Z,96.80
2017-10-27T07:56:01.547Z,96.80
2017-10-27T07:58:29.697Z,96.70
2017-10-27T08:00:58.553Z,96.70
2017-10-27T08:03:26.642Z,96.60
2017-10-27T08:05:54.744Z,96.50
2017-10-27T08:08:23.627Z,96.50
2017-10-27T08:10:52.507Z,96.60
2017-10-27T08:13:20.608Z,96.60
2017-10-27T08:15:48.696Z,96.80
2017-10-27T08:18:16.795Z,96.70
2017-10-27T08:20:44.916Z,96.30
2017-10-27T08:23:15.005Z,96.20
2017-10-27T08:25:43.120Z,96.20
2017-10-27T08:28:11.303Z,96.20
2017-10-27T08:30:39.391Z,95.60
2017-10-27T08:33:07.550Z,95.40
2017-10-27T08:35:35.656Z,95.50
2017-10-27T08:38:03.751Z,95.40
2017-10-27T08:40:32.177Z,95.20
2017-10-27T08:43:00.262Z,94.90
2017-10-27T08:45:28.481Z,95.00
2017-10-27T08:47:56.572Z,95.40
2017-10-27T08:50:25.528Z,94.10
2017-10-27T08:52:53.692Z,94.10
2017-10-27T08:55:22.387Z,94.80
2017-10-27T08:57:50.483Z,94.70
2017-10-27T09:00:18.555Z,94.60
2017-10-27T09:02:47.455Z,94.10
2017-10-27T09:05:16.301Z,94.20
2017-10-27T09:07:44.436Z,94.20
2017-10-27T09:10:12.580Z,94.70
2017-10-27T09:12:40.666Z,94.30
2017-10-27T09:15:08.776Z,94.00
2017-10-27T09:17:36.897Z,94.00
2017-10-27T09:20:04.996Z,93.20
2017-10-27T09:22:33.300Z,93.50
2017-10-27T09:25:02.292Z,93.30
2017-10-27T09:27:30.492Z,92.70
2017-10-27T09:29:58.660Z,92.70
2017-10-27T09:32:26.844Z,93.10
2017-10-27T09:34:55.056Z,92.60
2017-10-27T09:37:23.174Z,92.10
2017-10-27T09:39:51.265Z,92.50
2017-10-27T09:42:19.448Z,92.80
2017-10-27T09:44:47.535Z,92.10
2017-10-27T09:47:16.396Z,92.30
2017-10-27T09:49:44.705Z,92.30
2017-10-27T09:52:13.012Z,92.30
2017-10-27T09:54:41.107Z,92.20
2017-10-27T09:57:09.208Z,91.80
2017-10-27T09:59:37.407Z,92.30
2017-10-27T10:02:05.509Z,92.60
2017-10-27T10:04:33.628Z,93.20
2017-10-27T10:07:01.715Z,92.40
2017-10-27T10:09:29.825Z,91.90
2017-10-27T10:11:57.942Z,91.80
2017-10-27T10:14:26.077Z,91.90
2017-10-27T10:16:54.296Z,92.10
2017-10-27T10:19:22.390Z,91.60
2017-10-27T10:21:51.240Z,91.80
2017-10-27T10:24:19.355Z,91.80
2017-10-27T10:26:48.650Z,91.40
2017-10-27T10:29:16.897Z,91.30
2017-10-27T10:31:45.065Z,91.30
2017-10-27T10:34:13.175Z,89.70
2017-10-27T10:36:42.050Z,90.40
2017-10-27T10:39:10.151Z,90.50
2017-10-27T10:41:38.534Z,90.90
2017-10-27T10:44:06.727Z,91.50
2017-10-27T10:46:34.836Z,91.50
2017-10-27T10:49:03.209Z,91.40
2017-10-27T10:51:31.298Z,91.80
2017-10-27T10:53:59.379Z,91.30
2017-10-27T10:56:28.263Z,91.60
2017-10-27T10:58:57.122Z,91.60
2017-10-27T11:01:25.229Z,91.30
2017-10-27T11:03:54.080Z,90.50
2017-10-27T11:06:22.396Z,90.60
2017-10-27T11:08:50.472Z,90.30
2017-10-27T11:11:18.575Z,89.50
2017-10-27T11:13:46.707Z,88.10
2017-10-27T11:16:14.895Z,88.30
2017-10-27T11:18:43.771Z,87.10
2017-10-27T11:21:11.876Z,87.10
2017-10-27T11:23:39.975Z,85.80
2017-10-27T11:26:08.076Z,84.20
2017-10-27T11:28:36.193Z,86.70
2017-10-27T11:31:04.277Z,85.20
2017-10-27T11:33:32.360Z,86.20
2017-10-27T11:36:01.250Z,86.60
2017-10-27T11:38:30.092Z,91.20
2017-10-27T11:40:58.937Z,92.00
2017-10-27T11:43:27.033Z,91.90
2017-10-27T11:45:55.114Z,93.30
2017-10-27T11:48:23.736Z,93.90
2017-10-27T11:50:51.831Z,93.80
2017-10-27T11:53:19.969Z,94.60
2017-10-27T11:55:48.816Z,94.10
2017-10-27T11:58:17.677Z,94.00
2017-10-27T12:00:45.789Z,93.70
2017-10-27T12:03:13.881Z,94.30
2017-10-27T12:05:41.959Z,92.80
2017-10-27T12:08:10.836Z,94.20
2017-10-27T12:10:38.927Z,94.10
2017-10-27T12:13:07.812Z,94.20
2017-10-27T12:15:35.912Z,94.10
2017-10-27T12:18:04.032Z,94.30
2017-10-27T12:20:32.181Z,94.70
2017-10-27T12:23:00.290Z,94.70
2017-10-27T12:25:28.387Z,94.60
2017-10-27T12:27:56.512Z,95.40
2017-10-27T12:30:24.587Z,94.60
2017-10-27T12:32:52.684Z,95.10
2017-10-27T12:35:20.793Z,94.40
2017-10-27T12:37:48.885Z,93.50
2017-10-27T12:40:16.996Z,93.50
2017-10-27T12:42:45.100Z,92.40
2017-10-27T12:45:13.200Z,92.20
2017-10-27T12:47:41.294Z,92.10
2017-10-27T12:50:09.421Z,91.10
2017-10-27T12:52:37.507Z,90.40
2017-10-27T12:55:05.835Z,89.50
2017-10-27T12:57:34.472Z,89.40
2017-10-27T13:00:02.580Z,88.80
2017-10-27T13:02:30.701Z,83.90
2017-10-27T13:04:58.796Z,80.30
2017-10-27T13:07:26.880Z,81.60
2017-10-27T13:09:54.985Z,80.10
2017-10-27T13:12:23.079Z,76.20
2017-10-27T13:14:51.998Z,73.50
2017-10-27T13:17:20.155Z,73.40
2017-10-27T13:19:48.280Z,73.70
2017-10-27T13:22:16.373Z,75.80
2017-10-27T13:24:44.509Z,76.50
2017-10-27T13:27:12.612Z,75.50
2017-10-27T13:29:40.683Z,76.80
2017-10-27T13:32:08.797Z,75.00
2017-10-27T13:34:36.876Z,75.90
2017-10-27T13:37:04.999Z,74.20
2017-10-27T13:39:33.085Z,76.90
2017-10-27T13:42:01.184Z,74.90
2017-10-27T13:44:29.263Z,76.40
2017-10-27T13:46:57.360Z,77.50
2017-10-27T13:49:25.462Z,76.90
2017-10-27T13:51:53.562Z,76.30
2017-10-27T13:54:22.479Z,77.40
2017-10-27T13:56:50.554Z,77.40
2017-10-27T13:59:18.801Z,78.20
2017-10-27T14:01:47.686Z,77.60
2017-10-27T14:04:16.581Z,76.80
2017-10-27T14:06:45.447Z,78.40
2017-10-27T14:09:13.604Z,78.40
2017-10-27T14:11:41.813Z,79.30
2017-10-27T14:14:10.704Z,77.80
2017-10-27T14:16:39.596Z,80.10
2017-10-27T14:19:07.748Z,80.20
2017-10-27T14:21:35.847Z,81.20
2017-10-27T14:24:04.771Z,81.00
2017-10-27T14:26:33.000Z,81.00
2017-10-27T14:29:01.181Z,82.60
2017-10-27T14:31:30.056Z,83.40
2017-10-27T14:33:58.275Z,84.10
2017-10-27T14:36:26.436Z,84.80
2017-10-27T14:38:56.416Z,82.70
2017-10-27T14:41:24.495Z,83.10
2017-10-27T14:43:52.577Z,83.90
2017-10-27T14:46:21.596Z,84.40
2017-10-27T14:48:49.722Z,84.50
2017-10-27T14:51:17.812Z,83.20
2017-10-27T14:53:46.692Z,83.10
2017-10-27T14:56:15.294Z,82.90
2017-10-27T14:58:43.464Z,82.30
2017-10-27T15:01:11.672Z,81.00
2017-10-27T15:03:39.800Z,81.50
2017-10-27T15:06:07.965Z,83.50
2017-10-27T15:08:36.084Z,82.10
2017-10-27T15:11:04.176Z,79.60
2017-10-27T15:13:32.247Z,78.00
2017-10-27T15:16:00.359Z,78.90
2017-10-27T15:18:28.587Z,78.10
2017-10-27T15:20:56.964Z,79.10
2017-10-27T15:23:25.052Z,78.00
2017-10-27T15:25:53.216Z,77.60
2017-10-27T15:28:22.230Z,78.60
2017-10-27T15:30:50.504Z,78.60
2017-10-27T15:33:19.628Z,78.30
2017-10-27T15:35:47.752Z,78.70
2017-10-27T15:38:16.074Z,79.50
2017-10-27T15:40:44.256Z,80.50
2017-10-27T15:43:12.629Z,80.30
2017-10-27T15:45:40.806Z,80.60
2017-10-27T15:48:08.924Z,80.30
2017-10-27T15:50:37.036Z,81.50
2017-10-27T15:53:05.293Z,81.60
2017-10-27T15:55:33.377Z,81.30
2017-10-27T15:58:01.580Z,81.40
2017-10-27T16:00:29.708Z,81.60
2017-10-27T16:02:57.797Z,83.40
2017-10-27T16:05:26.037Z,82.70
2017-10-27T16:07:54.136Z,84.80
2017-10-27T16:10:22.358Z,84.50
2017-10-27T16:12:51.321Z,84.20
2017-10-27T16:15:19.517Z,84.20
2017-10-27T16:17:48.468Z,85.70
2017-10-27T16:20:16.613Z,85.60
2017-10-27T16:22:44.759Z,86.40
2017-10-27T16:25:13.641Z,86.40
2017-10-27T16:27:41.904Z,86.40
2017-10-27T16:30:09.998Z,86.50
2017-10-27T16:32:38.915Z,86.80
2017-10-27T16:35:07.031Z,86.80
2017-10-27T16:37:35.222Z,86.50
2017-10-27T16:40:03.337Z,86.30
2017-10-27T16:42:31.431Z,86.10
2017-10-27T16:44:59.545Z,86.40
2017-10-27T16:47:27.793Z,87.10
2017-10-27T16:49:55.908Z,87.50
2017-10-27T16:52:24.805Z,85.80
2017-10-27T16:54:53.700Z,86.30
2017-10-27T16:57:21.864Z,86.30
2017-10-27T16:59:50.028Z,86.30
2017-10-27T17:02:18.304Z,87.40
2017-10-27T17:04:46.481Z,86.90
2017-10-27T17:07:15.392Z,88.30
2017-10-27T17:09:43.477Z,87.60
2017-10-27T17:12:11.628Z,87.20
2017-10-27T17:14:39.929Z,87.80
2017-10-27T17:17:08.024Z,86.90
2017-10-27T17:19:36.133Z,89.60
2017-10-27T17:22:04.248Z,87.50
2017-10-27T17:24:32.421Z,87.30
2017-10-27T17:27:00.587Z,88.50
2017-10-27T17:29:29.675Z,89.00
2017-10-27T17:31:57.866Z,89.30
2017-10-27T17:34:25.993Z,91.00
2017-10-27T17:36:54.085Z,89.30
2017-10-27T17:39:23.005Z,90.80
2017-10-27T17:41:51.884Z,90.60
2017-10-27T17:44:20.119Z,90.50
2017-10-27T17:46:48.229Z,90.50
2017-10-27T17:49:17.137Z,90.50
2017-10-27T17:51:46.040Z,90.50
2017-10-27T17:54:15.371Z,90.50
2017-10-27T17:56:43.601Z,90.50
2017-10-27T17:59:11.739Z,90.50
2017-10-27T18:01:39.980Z,90.90
2017-10-27T18:04:08.219Z,91.10
2017-10-27T18:06:36.705Z,91.00
2017-10-27T18:09:04.799Z,90.90
2017-10-27T18:11:33.552Z,90.80
2017-10-27T18:14:01.707Z,90.70
2017-10-27T18:16:30.739Z,90.90
2017-10-27T18:18:58.915Z,90.80
2017-10-27T18:21:27.000Z,90.70
2017-10-27T18:23:55.288Z,90.90
2017-10-27T18:26:23.501Z,90.80
2017-10-27T18:28:52.397Z,91.20
2017-10-27T18:31:20.574Z,91.20
2017-10-27T18:33:49.645Z,90.90
2017-10-27T18:36:17.770Z,90.90
2017-10-27T18:38:45.932Z,90.90
2017-10-27T18:41:14.023Z,91.00
2017-10-27T18:43:42.134Z,90.90
2017-10-27T18:46:10.401Z,90.80
2017-10-27T18:48:38.504Z,90.70
2017-10-27T18:51:06.675Z,91.00
2017-10-27T18:53:34.983Z,90.80
2017-10-27T18:56:03.132Z,90.70
2017-10-27T18:58:32.016Z,90.50
2017-10-27T19:01:00.904Z,90.30
2017-10-27T19:03:29.083Z,90.30
2017-10-27T19:05:57.248Z,90.70
2017-10-27T19:08:25.365Z,90.70
2017-10-27T19:10:53.453Z,90.60
2017-10-27T19:13:21.553Z,90.70
2017-10-27T19:15:49.812Z,90.50
2017-10-27T19:18:18.023Z,90.30
2017-10-27T19:20:46.932Z,90.10
2017-10-27T19:23:15.024Z,90.10
2017-10-27T19:25:43.187Z,90.30
2017-10-27T19:28:11.326Z,89.90
2017-10-27T19:30:39.407Z,90.30
2017-10-27T19:33:08.768Z,90.40
2017-10-27T19:35:36.877Z,90.30
2017-10-27T19:38:05.085Z,90.30
2017-10-27T19:40:33.818Z,90.40
2017-10-27T19:43:02.748Z,90.40
2017-10-27T19:45:31.872Z,90.40
2017-10-27T19:48:00.528Z,90.50
2017-10-27T19:50:29.423Z,90.40
2017-10-27T19:52:58.473Z,90.40
2017-10-27T19:55:26.612Z,90.40
2017-10-27T19:57:54.952Z,90.50
2017-10-27T20:00:23.032Z,90.50
2017-10-27T20:02:51.197Z,90.50
2017-10-27T20:05:19.324Z,90.90
2017-10-27T20:07:48.163Z,90.90
2017-10-27T20:10:17.043Z,91.40
2017-10-27T20:12:45.150Z,91.40
2017-10-27T20:15:13.253Z,91.70
2017-10-27T20:17:41.344Z,91.50
2017-10-27T20:20:09.429Z,91.60
2017-10-27T20:22:37.546Z,91.70
2017-10-27T20:25:05.641Z,91.30
2017-10-27T20:27:33.740Z,91.50
2017-10-27T20:30:01.861Z,91.60
2017-10-27T20:32:29.958Z,91.60
2017-10-27T20:34:58.101Z,91.50
2017-10-27T20:37:26.220Z,91.20
2017-10-27T20:39:54.342Z,91.20
2017-10-27T20:42:22.433Z,91.80
2017-10-27T20:44:50.569Z,92.20
2017-10-27T20:47:18.692Z,91.90
2017-10-27T20:49:46.791Z,92.70
2017-10-27T20:52:14.896Z,93.30
2017-10-27T20:54:43.758Z,93.40
2017-10-27T20:57:11.896Z,93.40
2017-10-27T20:59:40.032Z,93.10
2017-10-27T21:02:08.916Z,93.40
2017-10-27T21:04:37.820Z,92.50
2017-10-27T21:07:06.665Z,92.20
2017-10-27T21:09:34.832Z,92.10
2017-10-27T21:12:02.955Z,92.20
2017-10-27T21:14:31.815Z,92.90
2017-10-27T21:17:00.372Z,92.80
2017-10-27T21:19:28.462Z,91.80
2017-10-27T21:21:57.576Z,92.10
2017-10-27T21:24:25.677Z,91.90
2017-10-27T21:26:53.803Z,92.00
2017-10-27T21:29:21.948Z,92.00
2017-10-27T21:31:50.044Z,92.20
2017-10-27T21:34:18.296Z,92.10
2017-10-27T21:36:46.396Z,92.20
2017-10-27T21:39:15.356Z,92.00
2017-10-27T21:41:43.504Z,91.90
2017-10-27T21:44:11.588Z,91.80
2017-10-27T21:46:39.697Z,91.90
2017-10-27T21:49:07.784Z,91.70
2017-10-27T21:51:35.884Z,91.70
2017-10-27T21:54:04.775Z,91.90
2017-10-27T21:56:32.892Z,91.90
2017-10-27T21:59:00.981Z,91.90
2017-10-27T22:01:29.069Z,91.50
2017-10-27T22:03:57.187Z,91.70
2017-10-27T22:06:25.312Z,91.90
2017-10-27T22:08:53.428Z,92.10
2017-10-27T22:11:22.044Z,91.90
2017-10-27T22:13:50.133Z,92.00
2017-10-27T22:16:18.288Z,92.20
2017-10-27T22:18:46.417Z,92.30
2017-10-27T22:21:15.296Z,92.40
2017-10-27T22:23:43.390Z,92.40
2017-10-27T22:26:12.264Z,92.40
2017-10-27T22:28:41.132Z,92.70
2017-10-27T22:31:09.567Z,92.60
2017-10-27T22:33:37.680Z,92.60
2017-10-27T22:36:05.787Z,92.90
2017-10-27T22:38:34.694Z,92.40
2017-10-27T22:41:04.579Z,92.40
2017-10-27T22:43:33.440Z,92.90
2017-10-27T22:46:01.564Z,92.80
2017-10-27T22:48:29.676Z,92.40
2017-10-27T22:50:58.341Z,92.30
2017-10-27T22:53:26.422Z,92.40
2017-10-27T22:55:54.507Z,92.50
2017-10-27T22:58:23.536Z,92.40
2017-10-27T23:00:51.629Z,92.40
2017-10-27T23:03:19.723Z,92.60
2017-10-27T23:05:53.613Z,92.70
2017-10-27T23:08:21.780Z,92.90
2017-10-27T23:10:50.620Z,92.80
2017-10-27T23:13:18.725Z,92.80
2017-10-27T23:15:46.809Z,92.90
2017-10-27T23:18:15.687Z,92.80
2017-10-27T23:20:43.778Z,92.70
2017-10-27T23:23:12.620Z,92.90
2017-10-27T23:25:40.769Z,92.90
2017-10-27T23:28:09.049Z,92.80
2017-10-27T23:30:37.187Z,92.90
2017-10-27T23:33:06.059Z,92.70
2017-10-27T23:35:34.217Z,92.70
2017-10-27T23:38:02.311Z,92.70
2017-10-27T23:40:30.402Z,92.60
2017-10-27T23:42:58.516Z,92.50
2017-10-27T23:45:26.612Z,92.50
2017-10-27T23:47:54.696Z,92.40
2017-10-27T23:50:22.792Z,92.50
2017-10-27T23:52:50.875Z,92.40
2017-10-27T23:55:18.970Z,92.20
2017-10-27T23:57:47.084Z,92.20
